Time,TemperatureF,DewpointF,PressureIn,WindDirection,WindDirectionDegrees,WindSpeedMPH,WindSpeedGustMPH,Humidity,HourlyPrecipIn,Conditions,Clouds,dailyrainin,SoftwareType,DateUTC
2013-07-01 00:00:00,83.7,56.6,29.98,ESE,112,8.1,8.1,39,-99.99,,,-99.99,tws,2013-07-01 07:00:00,
2013-07-01 00:10:00,83.5,56.7,29.96,ESE,112,7.1,9.1,39,-99.99,,,-99.99,tws,2013-07-01 07:10:00,
2013-07-01 00:20:00,83.2,56.7,29.95,SE,135,4.5,5.6,39,-99.99,,,-99.99,tws,2013-07-01 07:20:00,
2013-07-01 00:30:00,82.9,56.5,29.94,South,180,3.2,5.5,40,-99.99,,,-99.99,tws,2013-07-01 07:30:00,
2013-07-01 00:40:00,82.5,56.7,29.95,NE,45,1.3,3.2,40,-99.99,,,-99.99,tws,2013-07-01 07:40:00,
2013-07-01 00:50:00,82.2,57.1,29.94,NE,45,0.8,1.9,41,-99.99,,,-99.99,tws,2013-07-01 07:50:00,
2013-07-01 01:00:00,81.8,57.2,29.95,North,0,0.9,3.7,42,-99.99,,,-99.99,tws,2013-07-01 08:00:00,
2013-07-01 01:10:00,81.5,57.0,29.96,South,180,0.6,1.8,42,-99.99,,,-99.99,tws,2013-07-01 08:10:00,
2013-07-01 01:20:00,81.3,56.9,29.95,South,180,1.6,2.7,42,-99.99,,,-99.99,tws,2013-07-01 08:20:00,
2013-07-01 01:30:00,81.3,56.7,29.95,SW,225,1.3,3.0,42,-99.99,,,-99.99,tws,2013-07-01 08:30:00,
2013-07-01 01:40:00,81.4,56.2,29.94,SE,135,2.1,3.4,41,-99.99,,,-99.99,tws,2013-07-01 08:40:00,
2013-07-01 01:50:00,81.5,56.4,29.94,South,180,1.4,2.0,41,-99.99,,,-99.99,tws,2013-07-01 08:50:00,
2013-07-01 02:00:00,81.5,56.5,29.93,WNW,292,0.8,2.7,41,-99.99,,,-99.99,tws,2013-07-01 09:00:00,
2013-07-01 02:10:00,81.4,56.8,29.94,South,180,0.6,2.1,42,-99.99,,,-99.99,tws,2013-07-01 09:10:00,
2013-07-01 02:20:00,81.3,56.7,29.94,South,180,1.5,3.1,42,-99.99,,,-99.99,tws,2013-07-01 09:20:00,
2013-07-01 02:30:00,81.3,56.4,29.94,SW,225,3.6,4.7,41,-99.99,,,-99.99,tws,2013-07-01 09:30:00,
2013-07-01 02:40:00,81.3,56.5,29.95,West,270,3.1,3.9,42,-99.99,,,-99.99,tws,2013-07-01 09:40:00,
2013-07-01 02:50:00,81.3,56.7,29.96,NW,315,0.2,0.8,42,-99.99,,,-99.99,tws,2013-07-01 09:50:00,
2013-07-01 03:00:00,81.3,56.9,29.96,North,0,0.5,1.6,42,-99.99,,,-99.99,tws,2013-07-01 10:00:00,
2013-07-01 03:10:00,81.2,57.0,29.96,North,0,0.1,0.4,43,-99.99,,,-99.99,tws,2013-07-01 10:10:00,
2013-07-01 03:20:00,81.0,56.7,29.96,NNE,22,0.2,1.1,42,-99.99,,,-99.99,tws,2013-07-01 10:20:00,
2013-07-01 03:30:00,81.0,56.7,29.96,East,90,0.2,1.0,42,-99.99,,,-99.99,tws,2013-07-01 10:30:00,
2013-07-01 03:40:00,81.0,56.8,29.96,NE,45,0.1,0.3,43,-99.99,,,-99.99,tws,2013-07-01 10:40:00,
2013-07-01 03:50:00,80.9,56.9,29.96,East,90,0.1,0.6,43,-99.99,,,-99.99,tws,2013-07-01 10:50:00,
2013-07-01 04:00:00,80.7,57.0,29.95,East,90,0.0,0.0,43,-99.99,,,-99.99,tws,2013-07-01 11:00:00,
2013-07-01 04:10:00,80.4,56.7,29.95,ESE,112,0.0,0.0,43,-99.99,,,-99.99,tws,2013-07-01 11:10:00,
2013-07-01 04:20:00,80.1,57.3,29.95,East,90,0.0,0.0,45,-99.99,,,-99.99,tws,2013-07-01 11:20:00,
2013-07-01 04:30:00,80.0,57.3,29.95,NE,45,0.0,0.0,45,-99.99,,,-99.99,tws,2013-07-01 11:30:00,
2013-07-01 04:40:00,79.9,57.2,29.95,South,180,0.0,0.0,45,-99.99,,,-99.99,tws,2013-07-01 11:40:00,
2013-07-01 04:50:00,79.8,57.3,29.95,SW,225,0.0,0.0,45,-99.99,,,-99.99,tws,2013-07-01 11:50:00,
2013-07-01 05:00:00,79.6,57.2,29.95,SW,225,0.0,0.0,45,-99.99,,,-99.99,tws,2013-07-01 12:00:00,
2013-07-01 05:10:00,79.3,56.8,29.96,West,270,0.2,1.3,45,-99.99,,,-99.99,tws,2013-07-01 12:10:00,
2013-07-01 05:20:00,79.0,56.9,29.96,NNW,337,0.0,0.0,46,-99.99,,,-99.99,tws,2013-07-01 12:20:00,
2013-07-01 05:30:00,78.7,56.9,29.96,NW,315,0.1,0.5,46,-99.99,,,-99.99,tws,2013-07-01 12:30:00,
2013-07-01 05:40:00,78.5,56.5,29.97,NNW,337,2.5,3.4,46,-99.99,,,-99.99,tws,2013-07-01 12:40:00,
2013-07-01 05:50:00,78.6,56.9,29.97,NNW,337,2.4,4.0,46,-99.99,,,-99.99,tws,2013-07-01 12:50:00,
2013-07-01 06:00:00,78.6,56.9,29.98,NE,45,2.8,3.5,46,-99.99,,,-99.99,tws,2013-07-01 13:00:00,
2013-07-01 06:10:00,78.7,57.4,29.97,North,0,1.3,2.1,47,-99.99,,,-99.99,tws,2013-07-01 13:10:00,
2013-07-01 06:20:00,78.7,58.5,29.96,NE,45,1.9,2.4,49,-99.99,,,-99.99,tws,2013-07-01 13:20:00,
2013-07-01 06:30:00,78.6,58.3,29.96,NW,315,1.3,2.2,49,-99.99,,,-99.99,tws,2013-07-01 13:30:00,
2013-07-01 06:40:00,78.6,58.9,29.97,NW,315,2.5,3.2,50,-99.99,,,-99.99,tws,2013-07-01 13:40:00,
2013-07-01 06:50:00,78.6,58.3,29.98,NW,315,1.9,3.0,49,-99.99,,,-99.99,tws,2013-07-01 13:50:00,
2013-07-01 07:00:00,78.7,58.4,29.98,NW,315,2.4,3.1,49,-99.99,,,-99.99,tws,2013-07-01 14:00:00,
2013-07-01 07:10:00,79.0,58.3,29.97,North,0,1.2,2.1,48,-99.99,,,-99.99,tws,2013-07-01 14:10:00,
2013-07-01 07:20:00,79.6,59.3,29.98,NE,45,2.1,3.1,49,-99.99,,,-99.99,tws,2013-07-01 14:20:00,
2013-07-01 07:30:00,80.4,58.7,29.98,NE,45,2.6,3.0,46,-99.99,,,-99.99,tws,2013-07-01 14:30:00,
2013-07-01 07:40:00,81.4,59.3,29.99,ESE,112,2.5,3.0,46,-99.99,,,-99.99,tws,2013-07-01 14:40:00,
2013-07-01 07:50:00,81.8,58.9,29.98,SE,135,2.1,2.9,45,-99.99,,,-99.99,tws,2013-07-01 14:50:00,
2013-07-01 08:00:00,82.1,58.4,29.98,SE,135,2.3,3.1,43,-99.99,,,-99.99,tws,2013-07-01 15:00:00,
2013-07-01 08:10:00,82.4,58.6,29.98,SSE,157,2.1,3.0,43,-99.99,,,-99.99,tws,2013-07-01 15:10:00,
2013-07-01 08:20:00,82.7,58.4,29.99,East,90,2.9,4.0,43,-99.99,,,-99.99,tws,2013-07-01 15:20:00,
2013-07-01 08:30:00,83.3,58.9,29.98,SSE,157,3.6,4.8,43,-99.99,,,-99.99,tws,2013-07-01 15:30:00,
2013-07-01 08:40:00,84.0,59.1,29.99,SE,135,3.1,4.1,42,-99.99,,,-99.99,tws,2013-07-01 15:40:00,
2013-07-01 08:50:00,84.8,59.9,29.99,ESE,112,3.4,4.2,42,-99.99,,,-99.99,tws,2013-07-01 15:50:00,
2013-07-01 09:00:00,85.8,60.6,29.99,SSE,157,3.5,4.4,42,-99.99,,,-99.99,tws,2013-07-01 16:00:00,
2013-07-01 09:10:00,86.7,61.1,29.98,East,90,2.9,3.8,41,-99.99,,,-99.99,tws,2013-07-01 16:10:00,
2013-07-01 09:20:00,87.7,60.3,29.98,ESE,112,3.4,4.5,39,-99.99,,,-99.99,tws,2013-07-01 16:20:00,
2013-07-01 09:30:00,88.9,60.8,29.98,ESE,112,4.5,6.5,38,-99.99,,,-99.99,tws,2013-07-01 16:30:00,
2013-07-01 09:40:00,90.1,60.5,29.97,East,90,3.6,4.6,36,-99.99,,,-99.99,tws,2013-07-01 16:40:00,
2013-07-01 09:50:00,91.1,60.3,29.98,ESE,112,3.8,5.0,35,-99.99,,,-99.99,tws,2013-07-01 16:50:00,
2013-07-01 10:00:00,92.0,59.7,29.98,SE,135,2.7,4.1,33,-99.99,,,-99.99,tws,2013-07-01 17:00:00,
2013-07-01 10:10:00,92.5,59.7,29.98,East,90,3.6,4.6,32,-99.99,,,-99.99,tws,2013-07-01 17:10:00,
2013-07-01 10:20:00,93.1,59.8,29.98,East,90,2.7,3.7,32,-99.99,,,-99.99,tws,2013-07-01 17:20:00,
2013-07-01 10:30:00,93.8,60.2,29.98,ESE,112,2.5,3.4,32,-99.99,,,-99.99,tws,2013-07-01 17:30:00,
2013-07-01 10:40:00,94.4,59.8,29.98,SE,135,2.1,3.3,31,-99.99,,,-99.99,tws,2013-07-01 17:40:00,
2013-07-01 10:50:00,95.1,59.9,29.98,South,180,2.7,5.5,30,-99.99,,,-99.99,tws,2013-07-01 17:50:00,
2013-07-01 11:00:00,95.8,58.9,29.97,WSW,247,2.3,3.7,28,-99.99,,,-99.99,tws,2013-07-01 18:00:00,
2013-07-01 11:10:00,96.2,57.9,29.96,SW,225,5.0,6.3,27,-99.99,,,-99.99,tws,2013-07-01 18:10:00,
2013-07-01 11:20:00,96.8,57.5,29.96,WSW,247,3.2,5.7,26,-99.99,,,-99.99,tws,2013-07-01 18:20:00,
2013-07-01 11:30:00,97.3,57.8,29.95,NW,315,4.4,7.1,26,-99.99,,,-99.99,tws,2013-07-01 18:30:00,
2013-07-01 11:40:00,97.9,58.2,29.95,South,180,3.6,5.9,26,-99.99,,,-99.99,tws,2013-07-01 18:40:00,
2013-07-01 11:50:00,98.6,57.8,29.94,West,270,4.2,6.3,25,-99.99,,,-99.99,tws,2013-07-01 18:50:00,
2013-07-01 12:00:00,99.0,57.5,29.94,WNW,292,5.8,8.4,24,-99.99,,,-99.99,tws,2013-07-01 19:00:00,
2013-07-01 12:10:00,99.5,57.2,29.94,South,180,3.4,6.1,24,-99.99,,,-99.99,tws,2013-07-01 19:10:00,
2013-07-01 12:20:00,99.9,57.3,29.94,SW,225,4.7,8.4,23,-99.99,,,-99.99,tws,2013-07-01 19:20:00,
2013-07-01 12:30:00,100.5,57.7,29.93,SW,225,4.9,7.3,23,-99.99,,,-99.99,tws,2013-07-01 19:30:00,
2013-07-01 12:40:00,101.0,57.3,29.92,East,90,4.8,6.4,23,-99.99,,,-99.99,tws,2013-07-01 19:40:00,
2013-07-01 12:50:00,101.3,57.0,29.92,North,0,5.3,10.0,22,-99.99,,,-99.99,tws,2013-07-01 19:50:00,
2013-07-01 13:00:00,101.7,58.4,29.92,SW,225,3.7,5.8,23,-99.99,,,-99.99,tws,2013-07-01 20:00:00,
2013-07-01 13:10:00,102.0,57.6,29.91,SE,135,3.7,6.8,22,-99.99,,,-99.99,tws,2013-07-01 20:10:00,
2013-07-01 13:20:00,102.2,57.5,29.92,NW,315,3.2,6.7,22,-99.99,,,-99.99,tws,2013-07-01 20:20:00,
2013-07-01 13:30:00,102.5,58.5,29.92,South,180,4.7,6.6,22,-99.99,,,-99.99,tws,2013-07-01 20:30:00,
2013-07-01 13:40:00,102.5,58.2,29.91,South,180,6.6,10.9,22,-99.99,,,-99.99,tws,2013-07-01 20:40:00,
2013-07-01 13:50:00,102.9,58.6,29.91,South,180,4.5,8.7,22,-99.99,,,-99.99,tws,2013-07-01 20:50:00,
2013-07-01 14:00:00,103.1,58.1,29.89,SE,135,8.7,11.8,22,-99.99,,,-99.99,tws,2013-07-01 21:00:00,
2013-07-01 14:10:00,103.0,57.8,29.89,South,180,9.9,12.4,22,-99.99,,,-99.99,tws,2013-07-01 21:10:00,
2013-07-01 14:20:00,103.0,57.6,29.88,SW,225,8.3,13.2,21,-99.99,,,-99.99,tws,2013-07-01 21:20:00,
2013-07-01 14:30:00,103.4,57.8,29.88,SW,225,10.2,13.1,21,-99.99,,,-99.99,tws,2013-07-01 21:30:00,
2013-07-01 14:40:00,103.5,57.5,29.87,WSW,247,8.0,13.9,21,-99.99,,,-99.99,tws,2013-07-01 21:40:00,
2013-07-01 14:50:00,103.6,57.7,29.87,South,180,7.2,11.5,21,-99.99,,,-99.99,tws,2013-07-01 21:50:00,
2013-07-01 15:00:00,103.9,57.6,29.87,SE,135,10.9,12.3,21,-99.99,,,-99.99,tws,2013-07-01 22:00:00,
2013-07-01 15:10:00,104.2,56.9,29.85,SW,225,10.9,17.0,20,-99.99,,,-99.99,tws,2013-07-01 22:10:00,
2013-07-01 15:20:00,104.0,56.6,29.85,South,180,10.9,14.8,20,-99.99,,,-99.99,tws,2013-07-01 22:20:00,
2013-07-01 15:30:00,103.1,56.8,29.85,ESE,112,8.7,11.6,21,-99.99,,,-99.99,tws,2013-07-01 22:30:00,
2013-07-01 15:40:00,101.5,57.9,29.85,East,90,7.5,11.2,23,-99.99,,,-99.99,tws,2013-07-01 22:40:00,
2013-07-01 15:50:00,97.2,62.3,29.86,East,90,9.4,15.1,31,-99.99,,,-99.99,tws,2013-07-01 22:50:00,
2013-07-01 16:00:00,90.9,61.0,29.85,SE,135,6.9,10.2,36,-99.99,,,-99.99,tws,2013-07-01 23:00:00,
2013-07-01 16:10:00,89.6,60.8,29.85,SE,135,4.6,7.5,37,-99.99,,,-99.99,tws,2013-07-01 23:10:00,
2013-07-01 16:20:00,90.2,60.7,29.85,South,180,2.9,4.1,36,-99.99,,,-99.99,tws,2013-07-01 23:20:00,
2013-07-01 16:30:00,91.9,60.4,29.85,East,90,2.9,3.9,34,-99.99,,,-99.99,tws,2013-07-01 23:30:00,
2013-07-01 16:40:00,94.3,62.7,29.85,SSW,202,3.7,5.3,34,-99.99,,,-99.99,tws,2013-07-01 23:40:00,
2013-07-01 16:50:00,96.9,60.6,29.84,SW,225,6.9,12.2,29,-99.99,,,-99.99,tws,2013-07-01 23:50:00,
2013-07-01 17:00:00,99.3,57.6,29.84,ESE,112,7.1,13.3,24,-99.99,,,-99.99,tws,2013-07-02 00:00:00,
2013-07-01 17:10:00,100.5,57.4,29.84,SW,225,5.8,10.4,23,-99.99,,,-99.99,tws,2013-07-02 00:10:00,
2013-07-01 17:20:00,100.4,56.6,29.85,SW,225,4.5,6.3,22,-99.99,,,-99.99,tws,2013-07-02 00:20:00,
2013-07-01 17:30:00,97.1,64.5,29.86,North,0,4.9,11.3,33,-99.99,,,-99.99,tws,2013-07-02 00:30:00,
2013-07-01 17:40:00,88.5,65.9,29.85,North,0,2.8,3.9,46,-99.99,,,-99.99,tws,2013-07-02 00:40:00,
2013-07-01 17:50:00,83.6,64.7,29.85,East,90,2.5,4.3,52,-99.99,,,-99.99,tws,2013-07-02 00:50:00,
2013-07-01 18:00:00,83.1,64.3,29.86,ENE,67,4.4,6.0,52,-99.99,,,-99.99,tws,2013-07-02 01:00:00,
2013-07-01 18:10:00,85.1,62.5,29.86,SE,135,5.3,7.0,46,-99.99,,,-99.99,tws,2013-07-02 01:10:00,
2013-07-01 18:20:00,86.9,62.1,29.86,East,90,4.2,5.8,42,-99.99,,,-99.99,tws,2013-07-02 01:20:00,
2013-07-01 18:30:00,88.2,61.2,29.87,North,0,4.8,7.0,39,-99.99,,,-99.99,tws,2013-07-02 01:30:00,
2013-07-01 18:40:00,88.9,61.0,29.86,ESE,112,4.9,6.9,38,-99.99,,,-99.99,tws,2013-07-02 01:40:00,
2013-07-01 18:50:00,89.2,60.7,29.87,East,90,4.7,6.5,37,-99.99,,,-99.99,tws,2013-07-02 01:50:00,
2013-07-01 19:00:00,89.2,59.7,29.87,East,90,2.8,5.1,36,-99.99,,,-99.99,tws,2013-07-02 02:00:00,
2013-07-01 19:10:00,89.1,59.9,29.86,SW,225,1.1,2.0,36,-99.99,,,-99.99,tws,2013-07-02 02:10:00,
2013-07-01 19:20:00,88.7,60.2,29.87,NW,315,2.6,3.1,37,-99.99,,,-99.99,tws,2013-07-02 02:20:00,
2013-07-01 19:30:00,88.4,61.9,29.86,West,270,2.6,3.1,40,-99.99,,,-99.99,tws,2013-07-02 02:30:00,
2013-07-01 19:40:00,87.9,61.7,29.86,NW,315,2.8,3.6,40,-99.99,,,-99.99,tws,2013-07-02 02:40:00,
2013-07-01 19:50:00,87.6,61.5,29.88,NW,315,3.9,4.8,41,-99.99,,,-99.99,tws,2013-07-02 02:50:00,
2013-07-01 20:00:00,87.4,61.5,29.88,NW,315,4.3,5.1,41,-99.99,,,-99.99,tws,2013-07-02 03:00:00,
2013-07-01 20:10:00,87.3,60.7,29.89,NNW,337,4.1,4.8,40,-99.99,,,-99.99,tws,2013-07-02 03:10:00,
2013-07-01 20:20:00,87.2,60.6,29.89,NW,315,3.9,4.3,40,-99.99,,,-99.99,tws,2013-07-02 03:20:00,
2013-07-01 20:30:00,87.1,60.4,29.89,NW,315,4.3,4.9,40,-99.99,,,-99.99,tws,2013-07-02 03:30:00,
2013-07-01 20:40:00,87.1,59.7,29.90,North,0,4.3,4.8,39,-99.99,,,-99.99,tws,2013-07-02 03:40:00,
2013-07-01 20:50:00,87.2,59.3,29.90,NW,315,2.8,3.9,38,-99.99,,,-99.99,tws,2013-07-02 03:50:00,
2013-07-01 21:00:00,87.2,59.3,29.91,NW,315,1.9,2.6,38,-99.99,,,-99.99,tws,2013-07-02 04:00:00,
2013-07-01 21:10:00,87.1,59.5,29.91,East,90,3.2,4.5,38,-99.99,,,-99.99,tws,2013-07-02 04:10:00,
2013-07-01 21:20:00,87.2,61.0,29.92,SE,135,3.3,4.7,40,-99.99,,,-99.99,tws,2013-07-02 04:20:00,
2013-07-01 21:30:00,86.9,61.5,29.92,South,180,2.2,3.4,41,-99.99,,,-99.99,tws,2013-07-02 04:30:00,
2013-07-01 21:40:00,86.6,61.8,29.92,South,180,2.5,3.0,42,-99.99,,,-99.99,tws,2013-07-02 04:40:00,
2013-07-01 21:50:00,86.4,61.6,29.93,South,180,2.0,2.5,42,-99.99,,,-99.99,tws,2013-07-02 04:50:00,
2013-07-01 22:00:00,86.3,61.6,29.92,East,90,2.0,2.9,42,-99.99,,,-99.99,tws,2013-07-02 05:00:00,
2013-07-01 22:10:00,86.2,60.8,29.93,ESE,112,2.3,3.1,41,-99.99,,,-99.99,tws,2013-07-02 05:10:00,
2013-07-01 22:20:00,86.3,60.8,29.93,SE,135,2.9,4.5,41,-99.99,,,-99.99,tws,2013-07-02 05:20:00,
2013-07-01 22:30:00,86.4,60.8,29.94,ENE,67,2.1,2.6,41,-99.99,,,-99.99,tws,2013-07-02 05:30:00,
2013-07-01 22:40:00,86.5,60.3,29.94,ESE,112,2.3,3.2,40,-99.99,,,-99.99,tws,2013-07-02 05:40:00,
2013-07-01 22:50:00,86.4,61.1,29.95,East,90,3.4,4.9,42,-99.99,,,-99.99,tws,2013-07-02 05:50:00,
2013-07-01 23:00:00,86.4,60.8,29.96,ESE,112,4.1,5.7,41,-99.99,,,-99.99,tws,2013-07-02 06:00:00,
2013-07-01 23:10:00,86.6,59.5,29.96,East,90,3.6,4.8,39,-99.99,,,-99.99,tws,2013-07-02 06:10:00,
2013-07-01 23:20:00,87.0,58.2,29.97,East,90,4.2,5.9,37,-99.99,,,-99.99,tws,2013-07-02 06:20:00,
2013-07-01 23:30:00,87.3,58.0,29.96,SE,135,2.9,3.5,36,-99.99,,,-99.99,tws,2013-07-02 06:30:00,
2013-07-01 23:40:00,87.2,57.8,29.95,East,90,3.3,3.9,36,-99.99,,,-99.99,tws,2013-07-02 06:40:00,
2013-07-01 23:50:00,86.9,57.7,29.94,East,90,3.7,4.9,36,-99.99,,,-99.99,tws,2013-07-02 06:50:00,